Time;durP1;ratioP1;P1;durP2;ratioP2;P2;SDS_P1;SDS_P2;PMS_P1;PMS_P2;Temp;Humidity;BMP_temperature;BMP_pressure;BME280_temperature;BME280_humidity;BME280_pressure;Samples;Min_cycle;Max_cycle;Signal;HPM_P1;HPM_P2
2023/09/01 00:02:20;;;;;;;7.93;2.83;;;14.10;78.40;;;;;;4754577;30;20109;-91
2023/09/01 00:04:58;;;;;;;6.83;2.63;;;14.10;78.60;;;;;;4741406;30;20084;-91
2023/09/01 00:07:25;;;;;;;6.78;2.83;;;14.10;78.70;;;;;;4738237;30;20064;-91
2023/09/01 00:09:52;;;;;;;8.52;2.92;;;14.10;78.70;;;;;;4745868;30;20060;-90
2023/09/01 00:12:19;;;;;;;7.50;3.03;;;14.00;78.90;;;;;;4722385;30;20078;-89
2023/09/01 00:14:46;;;;;;;7.70;3.08;;;14.00;79.00;;;;;;4708283;30;20060;-91
2023/09/01 00:17:14;;;;;;;6.93;3.00;;;14.00;79.30;;;;;;4722983;30;20053;-90
2023/09/01 00:19:41;;;;;;;9.43;2.70;;;13.90;79.40;;;;;;4721763;30;20111;-90
2023/09/01 00:22:08;;;;;;;7.30;2.70;;;13.90;79.30;;;;;;4722649;30;20512;-90
2023/09/01 00:24:36;;;;;;;7.03;2.90;;;13.90;79.20;;;;;;4737018;30;20455;-90
2023/09/01 00:27:03;;;;;;;7.05;2.67;;;13.90;79.00;;;;;;4735516;30;20160;-90
2023/09/01 00:29:34;;;;;;;8.33;2.47;;;14.00;78.50;;;;;;4742858;30;20056;-90
2023/09/01 00:32:01;;;;;;;6.15;2.08;;;14.00;78.10;;;;;;4740262;30;20047;-90
2023/09/01 00:34:30;;;;;;;8.35;2.33;;;14.00;77.80;;;;;;4742741;30;20056;-90
2023/09/01 00:36:58;;;;;;;5.75;2.03;;;14.00;77.60;;;;;;4757559;30;20686;-91
2023/09/01 00:39:25;;;;;;;7.63;2.10;;;14.00;77.00;;;;;;4757525;30;20143;-90
2023/09/01 00:41:52;;;;;;;9.00;2.37;;;14.00;77.00;;;;;;4757525;30;20060;-90
2023/09/01 00:44:19;;;;;;;5.82;2.10;;;14.00;76.80;;;;;;4742744;30;20044;-91
2023/09/01 00:46:46;;;;;;;6.80;2.33;;;14.00;76.70;;;;;;4757428;30;20052;-90
2023/09/01 00:49:17;;;;;;;5.35;2.03;;;14.00;76.40;;;;;;4757306;30;20086;-91
2023/09/01 00:51:48;;;;;;;6.32;2.22;;;14.00;76.40;;;;;;4757248;30;20055;-91
2023/09/01 00:54:15;;;;;;;7.10;2.20;;;14.00;76.30;;;;;;4742599;30;20146;-91
2023/09/01 00:56:44;;;;;;;5.47;1.95;;;14.00;76.10;;;;;;4756991;30;20055;-91
2023/09/01 00:59:11;;;;;;;7.35;2.10;;;14.00;76.30;;;;;;4755966;30;20052;-91
2023/09/01 01:01:40;;;;;;;7.90;2.15;;;14.10;76.30;;;;;;4754391;30;20083;-90
2023/09/01 01:04:08;;;;;;;6.95;2.40;;;14.10;75.90;;;;;;4756934;30;20101;-91
2023/09/01 01:06:35;;;;;;;5.73;1.80;;;14.20;75.80;;;;;;4742328;30;20498;-90
2023/09/01 01:09:22;;;;;;;5.18;1.88;;;14.20;75.70;;;;;;4756766;30;20089;-91
2023/09/01 01:11:52;;;;;;;7.97;2.10;;;14.30;75.10;;;;;;4707216;30;20455;-92
2023/09/01 01:14:25;;;;;;;7.75;2.00;;;14.20;74.90;;;;;;4721669;30;20049;-90
2023/09/01 01:16:54;;;;;;;7.20;2.08;;;14.30;75.90;;;;;;4721629;30;20063;-89
2023/09/01 01:19:50;;;;;;;7.07;2.10;;;14.30;75.40;;;;;;4725016;30;20411;-89
2023/09/01 01:22:28;;;;;;;6.53;1.95;;;14.30;75.00;;;;;;4749709;30;20091;-90
2023/09/01 01:24:55;;;;;;;6.28;1.65;;;14.40;75.00;;;;;;4740843;30;20059;-90
2023/09/01 01:27:22;;;;;;;6.13;2.10;;;14.40;74.50;;;;;;4753897;30;20059;-90
2023/09/01 01:29:49;;;;;;;5.70;2.17;;;14.40;73.90;;;;;;4743472;30;20052;-90
2023/09/01 01:32:16;;;;;;;8.63;2.07;;;14.50;74.10;;;;;;4738834;30;20048;-90
2023/09/01 01:34:51;;;;;;;6.05;1.90;;;14.50;74.30;;;;;;4720997;30;20057;-90
2023/09/01 01:37:32;;;;;;;6.30;2.10;;;14.40;74.30;;;;;;4706861;30;20063;-90
2023/09/01 01:40:05;;;;;;;5.70;2.10;;;14.40;74.40;;;;;;4753733;30;20142;-90
2023/09/01 01:42:35;;;;;;;9.98;3.40;;;14.40;74.40;;;;;;4755840;30;20071;-91
2023/09/01 01:45:04;;;;;;;5.33;1.80;;;14.40;74.30;;;;;;4755915;30;20058;-90
2023/09/01 01:47:32;;;;;;;6.78;2.03;;;14.30;74.10;;;;;;4756069;30;20175;-90
2023/09/01 01:50:00;;;;;;;6.22;1.60;;;14.30;74.50;;;;;;4738366;30;20044;-89
2023/09/01 01:52:27;;;;;;;5.32;1.60;;;14.30;74.60;;;;;;4744858;30;20119;-89
2023/09/01 01:54:54;;;;;;;7.07;1.95;;;14.20;74.90;;;;;;4741558;30;20059;-90
2023/09/01 01:57:22;;;;;;;8.03;2.20;;;14.20;75.00;;;;;;4741418;30;20133;-90
2023/09/01 01:59:49;;;;;;;5.38;2.17;;;14.20;75.50;;;;;;4756115;30;20059;-90
2023/09/01 02:02:16;;;;;;;6.85;2.38;;;14.20;75.40;;;;;;4740066;30;20133;-90
2023/09/01 02:04:43;;;;;;;5.82;2.08;;;14.20;75.70;;;;;;4738387;30;20048;-89
2023/09/01 02:07:10;;;;;;;7.93;2.10;;;14.20;75.50;;;;;;4740874;30;20063;-90
2023/09/01 02:09:37;;;;;;;6.27;1.97;;;14.20;75.60;;;;;;4743426;30;20063;-89
2023/09/01 02:12:04;;;;;;;5.80;1.80;;;14.10;75.60;;;;;;4737820;30;20048;-90
2023/09/01 02:14:36;;;;;;;6.20;2.17;;;14.10;75.60;;;;;;4736095;30;20067;-89
2023/09/01 02:17:05;;;;;;;5.30;1.70;;;14.20;75.60;;;;;;4752753;30;20059;-89
2023/09/01 02:19:35;;;;;;;5.93;2.05;;;14.10;75.40;;;;;;4747017;30;20102;-90
2023/09/01 02:22:05;;;;;;;5.73;1.73;;;14.10;75.50;;;;;;4744179;30;20052;-89
2023/09/01 02:24:33;;;;;;;5.90;1.90;;;14.10;75.40;;;;;;4738135;30;20516;-89
2023/09/01 02:27:00;;;;;;;6.50;1.98;;;14.00;75.30;;;;;;4723263;30;20515;-88
2023/09/01 02:29:27;;;;;;;6.88;2.00;;;14.10;75.20;;;;;;4730827;30;20090;-90
2023/09/01 02:31:55;;;;;;;6.05;1.70;;;14.10;75.20;;;;;;4740082;30;20584;-90
2023/09/01 02:34:22;;;;;;;7.73;1.73;;;14.10;75.40;;;;;;4724719;30;20500;-90
2023/09/01 02:36:49;;;;;;;6.40;1.60;;;14.20;75.00;;;;;;4741097;30;20051;-90
2023/09/01 02:39:17;;;;;;;5.45;2.10;;;14.20;74.40;;;;;;4750067;30;20044;-90
2023/09/01 02:41:44;;;;;;;6.93;1.70;;;14.20;74.80;;;;;;4740190;30;20071;-90
2023/09/01 02:44:11;;;;;;;5.57;1.70;;;14.20;74.10;;;;;;4751475;30;20052;-90
2023/09/01 02:46:38;;;;;;;6.60;1.90;;;14.20;74.30;;;;;;4755597;30;20491;-90
2023/09/01 02:49:05;;;;;;;7.13;1.70;;;14.20;74.20;;;;;;4755453;30;20499;-91
2023/09/01 02:51:33;;;;;;;6.07;1.80;;;14.10;74.10;;;;;;4736764;30;20490;-91
2023/09/01 02:54:00;;;;;;;6.60;2.00;;;14.00;74.40;;;;;;4755472;30;20078;-90
2023/09/01 02:56:27;;;;;;;5.68;1.67;;;14.10;74.70;;;;;;4742718;30;20067;-89
2023/09/01 02:58:54;;;;;;;7.27;2.27;;;14.10;74.90;;;;;;4738089;30;20052;-90
2023/09/01 03:01:21;;;;;;;6.97;2.13;;;14.00;74.90;;;;;;4734967;30;20151;-91
2023/09/01 03:03:48;;;;;;;8.73;2.70;;;14.00;75.40;;;;;;4720112;30;20069;-90
2023/09/01 03:06:16;;;;;;;7.38;2.15;;;14.00;75.70;;;;;;4705911;30;20148;-90
2023/09/01 03:08:43;;;;;;;7.43;2.42;;;13.90;75.70;;;;;;4719953;30;20500;-90
2023/09/01 03:11:10;;;;;;;8.47;2.20;;;14.00;75.20;;;;;;4719883;30;20052;-90
2023/09/01 03:13:37;;;;;;;7.30;2.53;;;14.00;75.10;;;;;;4727148;30;20066;-90
2023/09/01 03:16:04;;;;;;;8.45;2.20;;;14.00;75.00;;;;;;4745884;30;20064;-89
2023/09/01 03:18:32;;;;;;;6.20;1.75;;;14.00;75.00;;;;;;4737407;30;20056;-90
2023/09/01 03:21:13;;;;;;;7.45;1.90;;;14.00;74.90;;;;;;4737108;30;20056;-90
2023/09/01 03:23:44;;;;;;;5.73;2.03;;;13.90;74.90;;;;;;4723011;30;20045;-90
2023/09/01 03:26:11;;;;;;;7.57;2.22;;;13.90;75.20;;;;;;4747824;30;20051;-89
2023/09/01 03:28:40;;;;;;;5.85;2.17;;;13.80;75.70;;;;;;4747248;30;20116;-90
2023/09/01 03:31:11;;;;;;;5.75;2.10;;;13.70;75.80;;;;;;4743588;30;20082;-90
2023/09/01 03:33:41;;;;;;;6.47;2.05;;;13.60;76.00;;;;;;4750825;30;20056;-89
2023/09/01 03:36:09;;;;;;;7.10;2.13;;;13.50;76.40;;;;;;4737418;30;20543;-89
2023/09/01 03:38:36;;;;;;;6.80;1.95;;;13.50;76.40;;;;;;4730100;30;20058;-90
2023/09/01 03:41:05;;;;;;;5.10;1.90;;;13.50;76.40;;;;;;4767088;30;20055;-89
2023/09/01 03:43:35;;;;;;;9.30;2.22;;;13.50;76.50;;;;;;4756792;30;20070;-89
2023/09/01 03:46:02;;;;;;;5.45;1.95;;;13.50;76.60;;;;;;4749540;30;20074;-89
2023/09/01 03:48:29;;;;;;;10.87;2.00;;;13.50;76.70;;;;;;4745090;30;20073;-90
2023/09/01 03:51:06;;;;;;;6.72;1.85;;;13.50;76.70;;;;;;4733760;30;20048;-89
2023/09/01 03:53:35;;;;;;;7.25;2.25;;;13.40;77.00;;;;;;4737691;30;20500;-90
2023/09/01 03:56:12;;;;;;;7.05;2.08;;;13.30;77.00;;;;;;4737777;30;20048;-89
2023/09/01 03:58:40;;;;;;;7.88;2.05;;;13.30;77.30;;;;;;4732013;30;20055;-89
2023/09/01 04:01:11;;;;;;;7.90;2.03;;;13.30;77.00;;;;;;4751018;30;20462;-89
2023/09/01 04:03:44;;;;;;;7.13;2.00;;;13.30;76.70;;;;;;4754924;30;20048;-90
2023/09/01 04:06:13;;;;;;;5.60;1.70;;;13.30;76.70;;;;;;4708672;30;20543;-90
2023/09/01 04:08:40;;;;;;;5.55;1.88;;;13.30;76.60;;;;;;4732223;30;20056;-90
2023/09/01 04:11:07;;;;;;;6.90;2.00;;;13.30;76.50;;;;;;4747653;30;20499;-90
2023/09/01 04:13:35;;;;;;;6.97;1.87;;;13.30;76.50;;;;;;4740639;30;20599;-90
2023/09/01 04:16:03;;;;;;;8.55;1.92;;;13.30;76.60;;;;;;4722688;30;20111;-90
2023/09/01 04:18:34;;;;;;;6.93;1.88;;;13.20;76.50;;;;;;4734566;30;20052;-90
2023/09/01 04:21:01;;;;;;;5.97;1.92;;;13.20;76.60;;;;;;4757406;30;20071;-90
2023/09/01 04:23:29;;;;;;;5.97;1.83;;;13.20;76.50;;;;;;4757896;30;20090;-90
2023/09/01 04:25:57;;;;;;;5.00;1.53;;;13.20;76.40;;;;;;4743707;30;20053;-90
2023/09/01 04:28:27;;;;;;;5.65;1.83;;;13.20;76.50;;;;;;4755419;30;20419;-90
2023/09/01 04:30:59;;;;;;;4.90;1.52;;;13.20;76.50;;;;;;4741359;30;20052;-90
2023/09/01 04:33:27;;;;;;;6.28;1.80;;;13.20;76.70;;;;;;4757429;30;20063;-89
2023/09/01 04:36:03;;;;;;;5.15;1.80;;;13.20;76.60;;;;;;4757323;30;20056;-89
2023/09/01 04:38:31;;;;;;;7.47;2.47;;;13.30;76.60;;;;;;4748925;30;20040;-90
2023/09/01 04:41:00;;;;;;;6.00;1.63;;;13.30;76.20;;;;;;4755781;30;20046;-90
2023/09/01 04:43:28;;;;;;;5.93;1.80;;;13.20;76.60;;;;;;4758456;30;20487;-93
2023/09/01 04:45:57;;;;;;;6.43;1.95;;;13.30;76.00;;;;;;4745566;30;20050;-89
2023/09/01 04:48:27;;;;;;;5.38;1.60;;;13.30;76.10;;;;;;4750755;30;20107;-90
2023/09/01 04:50:54;;;;;;;4.80;1.70;;;13.30;76.00;;;;;;4751244;30;20550;-90
2023/09/01 04:53:23;;;;;;;5.47;1.63;;;13.30;76.20;;;;;;4757238;30;20052;-90
2023/09/01 04:55:51;;;;;;;6.25;1.88;;;13.40;76.00;;;;;;4756882;30;20083;-89
2023/09/01 04:58:18;;;;;;;7.00;2.10;;;13.40;75.60;;;;;;4740345;30;20063;-90
2023/09/01 05:00:46;;;;;;;6.80;1.95;;;13.40;75.40;;;;;;4746487;30;20568;-89
2023/09/01 05:03:13;;;;;;;7.57;1.53;;;13.50;74.80;;;;;;4740833;30;20410;-89
2023/09/01 05:05:40;;;;;;;6.07;1.67;;;13.50;75.30;;;;;;4727395;30;20058;-88
2023/09/01 05:08:07;;;;;;;5.22;1.60;;;13.50;75.20;;;;;;4732230;30;20126;-87
2023/09/01 05:10:40;;;;;;;4.30;1.50;;;13.60;74.90;;;;;;4734027;30;20488;-87
2023/09/01 05:13:07;;;;;;;6.75;1.60;;;13.70;74.70;;;;;;4743409;30;20499;-87
2023/09/01 05:15:35;;;;;;;5.70;1.67;;;13.80;74.70;;;;;;4745267;30;20060;-87
2023/09/01 05:18:02;;;;;;;7.35;1.60;;;13.90;74.60;;;;;;4745296;30;20052;-88
2023/09/01 05:20:29;;;;;;;4.28;1.42;;;13.90;73.90;;;;;;4731696;30;20138;-88
2023/09/01 05:22:57;;;;;;;7.55;1.77;;;14.00;74.00;;;;;;4746831;30;20052;-88
2023/09/01 05:25:24;;;;;;;4.07;1.30;;;14.10;73.60;;;;;;4740189;30;20048;-88
2023/09/01 05:27:51;;;;;;;7.00;1.60;;;14.10;73.60;;;;;;4739079;30;20139;-88
2023/09/01 05:30:18;;;;;;;6.43;1.65;;;14.20;73.80;;;;;;4751551;30;20036;-88
2023/09/01 05:32:45;;;;;;;4.30;1.30;;;14.20;73.50;;;;;;4740749;30;20083;-88
2023/09/01 05:35:12;;;;;;;7.18;1.70;;;14.30;73.40;;;;;;4734968;30;20108;-88
2023/09/01 05:37:40;;;;;;;7.05;1.80;;;14.40;73.60;;;;;;4741214;30;20060;-89
2023/09/01 05:40:08;;;;;;;4.53;1.40;;;14.40;73.30;;;;;;4748444;30;20102;-92
2023/09/01 05:42:35;;;;;;;5.50;1.10;;;14.50;73.20;;;;;;4753828;30;20056;-92
2023/09/01 05:45:02;;;;;;;5.38;1.60;;;14.50;73.20;;;;;;4738766;30;20087;-92
2023/09/01 05:47:29;;;;;;;6.78;1.73;;;14.50;73.50;;;;;;4738851;30;20080;-93
2023/09/01 05:49:57;;;;;;;5.20;1.30;;;14.50;73.30;;;;;;4738712;30;20455;-91
2023/09/01 05:52:25;;;;;;;4.83;1.53;;;14.50;73.40;;;;;;4737465;30;20081;-88
2023/09/01 05:54:53;;;;;;;5.47;1.60;;;14.50;73.50;;;;;;4743483;30;20137;-88
2023/09/01 05:57:20;;;;;;;5.28;1.60;;;14.50;73.80;;;;;;4747745;30;20083;-88
2023/09/01 05:59:47;;;;;;;6.80;1.70;;;14.60;73.40;;;;;;4737966;30;20069;-89
2023/09/01 06:02:14;;;;;;;4.10;1.48;;;14.70;73.70;;;;;;4757143;30;20056;-94
2023/09/01 06:04:41;;;;;;;4.63;1.37;;;14.70;72.90;;;;;;4756241;30;20063;-95
2023/09/01 06:07:08;;;;;;;5.18;1.55;;;14.80;72.80;;;;;;4755753;30;20052;-96
2023/09/01 06:09:36;;;;;;;6.90;1.85;;;14.90;72.60;;;;;;4755122;30;20498;-94
2023/09/01 06:12:03;;;;;;;7.20;1.92;;;15.00;72.10;;;;;;4726454;30;20058;-88
2023/09/01 06:14:31;;;;;;;9.77;1.98;;;15.20;72.00;;;;;;4748168;30;20063;-87
2023/09/01 06:16:57;;;;;;;5.90;1.60;;;15.40;71.20;;;;;;4745083;30;20051;-87
2023/09/01 06:19:25;;;;;;;6.53;1.60;;;15.60;71.10;;;;;;4748189;30;20063;-87
2023/09/01 06:21:51;;;;;;;6.82;1.70;;;15.80;71.10;;;;;;4754709;30;20086;-87
2023/09/01 06:24:18;;;;;;;4.80;1.63;;;15.90;70.60;;;;;;4758376;30;20065;-87
2023/09/01 06:26:45;;;;;;;4.53;1.45;;;16.00;70.40;;;;;;4744655;30;20404;-87
2023/09/01 06:29:12;;;;;;;7.97;1.87;;;16.10;70.80;;;;;;4743487;30;20107;-87
2023/09/01 06:31:39;;;;;;;7.15;1.80;;;16.10;70.50;;;;;;4733922;30;20060;-89
2023/09/01 06:34:06;;;;;;;6.57;1.60;;;16.10;71.10;;;;;;4721281;30;20055;-86
2023/09/01 06:36:33;;;;;;;8.85;2.33;;;16.20;71.00;;;;;;4738760;30;20052;-87
2023/09/01 06:39:00;;;;;;;7.13;1.90;;;16.20;71.10;;;;;;4746883;30;20134;-90
2023/09/01 06:41:27;;;;;;;7.60;2.00;;;16.40;71.50;;;;;;4745800;30;20052;-90
2023/09/01 06:43:55;;;;;;;6.18;1.85;;;16.50;71.40;;;;;;4741001;30;20192;-90
2023/09/01 06:46:22;;;;;;;5.47;1.60;;;16.60;71.40;;;;;;4741341;30;20522;-89
2023/09/01 06:48:49;;;;;;;6.75;1.75;;;16.80;70.90;;;;;;4723563;30;20385;-91
2023/09/01 06:51:16;;;;;;;6.38;2.20;;;17.00;70.30;;;;;;4738438;30;20062;-91
2023/09/01 06:53:43;;;;;;;5.00;2.00;;;17.10;69.80;;;;;;4737916;30;20069;-92
2023/09/01 06:56:11;;;;;;;5.95;2.00;;;17.10;70.10;;;;;;4737674;30;20056;-90
2023/09/01 06:58:38;;;;;;;5.32;1.88;;;17.30;69.50;;;;;;4737480;30;20056;-91
2023/09/01 07:01:10;;;;;;;6.68;1.80;;;17.40;68.80;;;;;;4741351;30;20044;-90
2023/09/01 07:03:37;;;;;;;6.18;1.70;;;17.50;68.40;;;;;;4744939;30;20241;-89
2023/09/01 07:06:04;;;;;;;5.97;1.80;;;17.60;68.40;;;;;;4762868;30;20059;-89
2023/09/01 07:08:31;;;;;;;5.85;2.10;;;17.70;68.10;;;;;;4745922;30;20059;-89
2023/09/01 07:11:03;;;;;;;6.50;1.63;;;17.70;69.20;;;;;;4732222;30;20044;-89
2023/09/01 07:13:31;;;;;;;6.97;1.70;;;17.80;67.10;;;;;;4733998;30;20450;-89
2023/09/01 07:15:58;;;;;;;7.43;1.55;;;17.80;67.30;;;;;;4716817;30;20055;-89
2023/09/01 07:18:25;;;;;;;4.70;1.40;;;18.00;67.50;;;;;;4729974;30;20053;-88
2023/09/01 07:20:58;;;;;;;6.40;1.60;;;18.10;67.20;;;;;;4718686;30;20576;-89
2023/09/01 07:23:25;;;;;;;8.38;2.13;;;18.30;66.80;;;;;;4730862;30;20057;-88
2023/09/01 07:25:53;;;;;;;4.22;1.25;;;18.40;66.20;;;;;;4732734;30;20060;-88
2023/09/01 07:28:21;;;;;;;6.35;1.50;;;18.40;65.00;;;;;;4726596;30;20139;-88
2023/09/01 07:30:48;;;;;;;6.07;1.50;;;18.50;67.90;;;;;;4719562;30;20396;-88
2023/09/01 07:33:16;;;;;;;8.88;1.55;;;18.60;64.30;;;;;;4724444;30;20052;-88
2023/09/01 07:35:50;;;;;;;5.43;1.55;;;18.60;65.30;;;;;;4730476;30;20052;-87
2023/09/01 07:38:17;;;;;;;6.20;1.98;;;18.80;65.50;;;;;;4731181;30;20053;-88
2023/09/01 07:40:45;;;;;;;9.48;2.10;;;19.00;67.40;;;;;;4734637;30;20044;-88
2023/09/01 07:43:15;;;;;;;5.63;1.60;;;19.10;65.10;;;;;;4739433;30;20060;-89
2023/09/01 07:45:43;;;;;;;6.50;1.95;;;19.20;60.30;;;;;;4729047;30;20138;-88
2023/09/01 07:48:10;;;;;;;6.47;1.73;;;19.30;62.60;;;;;;4720686;30;20056;-88
2023/09/01 07:50:49;;;;;;;6.60;1.85;;;19.30;62.00;;;;;;4726387;30;20045;-88
2023/09/01 07:53:16;;;;;;;7.85;1.90;;;19.30;60.20;;;;;;4735242;30;20052;-89
2023/09/01 07:55:43;;;;;;;7.10;1.80;;;19.40;61.90;;;;;;4721001;30;20057;-88
2023/09/01 07:58:10;;;;;;;8.10;1.85;;;19.50;62.60;;;;;;4716131;30;20381;-88
2023/09/01 08:00:39;;;;;;;7.20;1.77;;;19.50;60.20;;;;;;4733362;30;20450;-88
2023/09/01 08:03:12;;;;;;;6.82;1.83;;;19.50;60.40;;;;;;4730793;30;20139;-88
2023/09/01 08:05:40;;;;;;;6.55;1.70;;;19.60;62.00;;;;;;4704376;30;20145;-88
2023/09/01 08:08:08;;;;;;;6.27;1.93;;;19.70;59.60;;;;;;4713796;30;20055;-88
2023/09/01 08:10:35;;;;;;;9.35;1.90;;;19.70;60.10;;;;;;4727967;30;20041;-88
2023/09/01 08:13:02;;;;;;;5.40;1.40;;;19.80;56.30;;;;;;4738378;30;20094;-88
2023/09/01 08:15:29;;;;;;;6.10;1.55;;;19.80;54.80;;;;;;4742291;30;20067;-88
2023/09/01 08:17:56;;;;;;;7.78;1.30;;;19.80;55.70;;;;;;4747689;30;20051;-91
2023/09/01 08:20:24;;;;;;;4.83;1.20;;;19.90;54.50;;;;;;4730903;30;20580;-90
2023/09/01 08:22:51;;;;;;;5.07;1.10;;;19.70;55.40;;;;;;4734734;30;20060;-91
2023/09/01 08:25:18;;;;;;;5.38;1.10;;;19.60;55.10;;;;;;4738904;30;20076;-91
2023/09/01 08:27:45;;;;;;;4.43;1.15;;;19.60;53.50;;;;;;4750497;30;20530;-89
2023/09/01 08:30:13;;;;;;;6.03;1.40;;;19.40;53.90;;;;;;4750739;30;20055;-91
2023/09/01 08:32:41;;;;;;;5.27;1.20;;;19.30;54.40;;;;;;4727537;30;20058;-90
2023/09/01 08:35:11;;;;;;;7.20;1.30;;;19.10;55.50;;;;;;4732168;30;20054;-91
2023/09/01 08:37:39;;;;;;;5.38;1.25;;;19.10;57.50;;;;;;4740742;30;20138;-88
2023/09/01 08:40:09;;;;;;;8.30;1.33;;;19.10;57.50;;;;;;4741782;30;20060;-88
2023/09/01 08:42:47;;;;;;;5.55;1.38;;;19.20;57.90;;;;;;4737881;30;20056;-88
2023/09/01 08:45:15;;;;;;;6.17;1.50;;;19.30;56.20;;;;;;4728526;30;20108;-88
2023/09/01 08:47:47;;;;;;;6.72;1.30;;;19.50;55.40;;;;;;4723820;30;20586;-88
2023/09/01 08:50:17;;;;;;;5.05;1.52;;;19.60;55.40;;;;;;4750441;30;20048;-88
2023/09/01 08:52:46;;;;;;;5.65;1.30;;;19.90;55.40;;;;;;4751498;30;20048;-89
2023/09/01 08:55:14;;;;;;;5.30;1.42;;;20.00;52.90;;;;;;4745988;30;20058;-88
2023/09/01 08:57:42;;;;;;;5.80;1.33;;;20.10;54.10;;;;;;4740616;30;20045;-88
2023/09/01 09:00:10;;;;;;;4.15;1.08;;;20.10;52.70;;;;;;4758885;30;20407;-87
2023/09/01 09:02:42;;;;;;;6.13;1.77;;;20.20;51.60;;;;;;4739455;30;20538;-87
2023/09/01 09:05:30;;;;;;;5.97;1.45;;;20.30;54.70;;;;;;4726520;30;20102;-88
2023/09/01 09:07:58;;;;;;;5.45;1.15;;;20.40;54.20;;;;;;4724896;30;20048;-88
2023/09/01 09:10:37;;;;;;;6.53;1.40;;;20.50;51.60;;;;;;4737891;30;20087;-88
2023/09/01 09:13:20;;;;;;;8.65;1.20;;;20.50;52.10;;;;;;4723463;30;20088;-88
2023/09/01 09:16:10;;;;;;;6.18;1.30;;;20.60;53.10;;;;;;4743450;30;20052;-88
2023/09/01 09:18:40;;;;;;;6.18;1.40;;;20.60;50.90;;;;;;4746944;30;20062;-88
2023/09/01 09:21:24;;;;;;;6.45;1.42;;;20.60;52.30;;;;;;4746716;30;20135;-88
2023/09/01 09:23:52;;;;;;;4.90;1.27;;;20.60;52.20;;;;;;4748185;30;20124;-88
2023/09/01 09:26:31;;;;;;;6.68;1.27;;;20.70;52.00;;;;;;4757470;30;20080;-88
2023/09/01 09:29:06;;;;;;;8.13;1.33;;;20.60;52.60;;;;;;4748627;30;20044;-87
2023/09/01 09:31:39;;;;;;;5.65;1.02;;;20.60;51.70;;;;;;4752657;30;20056;-88
2023/09/01 09:34:22;;;;;;;6.25;1.40;;;20.70;51.70;;;;;;4735128;30;20040;-88
2023/09/01 09:36:50;;;;;;;5.50;1.43;;;20.90;50.30;;;;;;4742988;30;20056;-88
2023/09/01 09:39:22;;;;;;;6.75;1.40;;;20.80;51.20;;;;;;4737918;30;20530;-87
2023/09/01 09:41:49;;;;;;;7.63;1.38;;;20.90;50.90;;;;;;4739402;30;20071;-88
2023/09/01 09:44:23;;;;;;;6.13;1.45;;;20.80;51.40;;;;;;4743556;30;20052;-88
2023/09/01 09:46:50;;;;;;;7.97;1.27;;;20.80;51.10;;;;;;4750423;30;20052;-88
2023/09/01 09:49:18;;;;;;;6.23;1.50;;;20.80;50.30;;;;;;4750269;30;20056;-88
2023/09/01 09:51:50;;;;;;;5.28;1.40;;;20.70;51.20;;;;;;4734793;30;20061;-88
2023/09/01 09:54:21;;;;;;;6.15;1.40;;;20.60;50.60;;;;;;4740392;30;20136;-88
2023/09/01 09:56:52;;;;;;;6.85;1.73;;;20.70;51.20;;;;;;4732030;30;20525;-88
2023/09/01 09:59:27;;;;;;;8.07;1.48;;;20.80;53.60;;;;;;4732182;30;20055;-88
2023/09/01 10:01:58;;;;;;;4.87;1.50;;;20.80;51.70;;;;;;4746388;30;20066;-88
2023/09/01 10:04:27;;;;;;;7.53;1.70;;;20.90;52.80;;;;;;4738306;30;20078;-88
2023/09/01 10:06:56;;;;;;;5.05;1.35;;;21.10;52.20;;;;;;4747701;30;20065;-89
2023/09/01 10:09:23;;;;;;;5.50;1.25;;;21.10;52.40;;;;;;4741624;30;20047;-88
2023/09/01 10:11:52;;;;;;;5.18;1.50;;;21.20;49.90;;;;;;4732331;30;20508;-88
2023/09/01 10:14:23;;;;;;;7.97;1.43;;;21.30;50.30;;;;;;4740786;30;20088;-88
2023/09/01 10:16:50;;;;;;;7.70;1.48;;;21.30;51.70;;;;;;4749416;30;20113;-88
2023/09/01 10:19:21;;;;;;;8.02;1.77;;;21.40;50.60;;;;;;4747454;30;20048;-89
2023/09/01 10:21:48;;;;;;;5.90;1.20;;;21.30;50.80;;;;;;4742108;30;20055;-89
2023/09/01 10:24:16;;;;;;;8.75;2.05;;;21.20;50.50;;;;;;4731149;30;20044;-88
2023/09/01 10:26:43;;;;;;;5.40;1.30;;;21.30;53.40;;;;;;4743574;30;20135;-88
2023/09/01 10:29:12;;;;;;;4.13;1.45;;;21.30;51.00;;;;;;4739617;30;20049;-88
2023/09/01 10:31:44;;;;;;;7.53;1.60;;;21.30;51.60;;;;;;4742596;30;20048;-88
2023/09/01 10:34:15;;;;;;;5.88;1.80;;;21.30;52.00;;;;;;4727830;30;20048;-87
2023/09/01 10:36:43;;;;;;;6.50;1.27;;;21.20;50.90;;;;;;4734120;30;20511;-88
2023/09/01 10:39:21;;;;;;;5.97;1.20;;;21.30;51.50;;;;;;4731063;30;20079;-88
2023/09/01 10:41:59;;;;;;;5.00;1.30;;;21.20;51.10;;;;;;4744396;30;20091;-88
2023/09/01 10:44:44;;;;;;;6.10;1.20;;;21.20;51.10;;;;;;4728490;30;20051;-88
2023/09/01 10:47:41;;;;;;;5.07;1.20;;;21.10;51.50;;;;;;4761888;30;20053;-88
2023/09/01 10:50:12;;;;;;;5.38;1.30;;;21.00;51.00;;;;;;4739695;30;20087;-88
2023/09/01 10:52:42;;;;;;;7.23;1.57;;;21.10;52.50;;;;;;4746464;30;20407;-88
2023/09/01 10:55:09;;;;;;;6.13;1.55;;;21.00;52.80;;;;;;4744414;30;20047;-87
2023/09/01 10:57:49;;;;;;;7.38;2.38;;;21.10;52.60;;;;;;4750603;30;20047;-88
2023/09/01 11:00:28;;;;;;;5.40;1.45;;;21.20;51.40;;;;;;4722493;30;20059;-88
2023/09/01 11:03:29;;;;;;;5.15;1.30;;;21.20;52.40;;;;;;4734735;30;20531;-89
2023/09/01 11:06:03;;;;;;;6.47;1.60;;;21.50;52.20;;;;;;4743358;30;20522;-88
2023/09/01 11:08:31;;;;;;;5.97;1.65;;;21.50;50.80;;;;;;4743693;30;20063;-89
2023/09/01 11:11:09;;;;;;;6.80;1.73;;;21.70;52.40;;;;;;4745154;30;20446;-88
2023/09/01 11:13:36;;;;;;;6.68;1.50;;;21.70;51.20;;;;;;4730500;30;20524;-87
2023/09/01 11:16:08;;;;;;;7.30;1.70;;;21.90;52.10;;;;;;4725985;30;20100;-89
2023/09/01 11:18:35;;;;;;;4.63;1.20;;;21.80;52.30;;;;;;4755898;30;20527;-88
2023/09/01 11:21:06;;;;;;;5.82;1.30;;;22.00;51.60;;;;;;4726199;30;20056;-88
2023/09/01 11:23:34;;;;;;;7.30;1.73;;;22.20;53.20;;;;;;4739984;30;20058;-89
2023/09/01 11:26:02;;;;;;;6.07;1.70;;;22.60;53.80;;;;;;4740683;30;20158;-88
2023/09/01 11:28:30;;;;;;;7.45;1.92;;;22.80;52.10;;;;;;4730330;30;20474;-88
2023/09/01 11:31:02;;;;;;;6.80;1.63;;;22.90;50.40;;;;;;4755768;30;20068;-88
2023/09/01 11:33:36;;;;;;;5.30;1.75;;;23.00;49.90;;;;;;4745033;30;20055;-89
2023/09/01 11:36:10;;;;;;;5.43;1.60;;;23.10;50.90;;;;;;4727206;30;20146;-88
2023/09/01 11:38:39;;;;;;;5.28;1.40;;;23.10;47.80;;;;;;4741645;30;20053;-89
2023/09/01 11:41:14;;;;;;;5.47;1.30;;;23.20;47.90;;;;;;4726996;30;20048;-89
2023/09/01 11:43:42;;;;;;;6.50;1.53;;;23.20;47.00;;;;;;4741171;30;20597;-88
2023/09/01 11:46:12;;;;;;;4.68;1.35;;;23.20;49.50;;;;;;4741183;30;20112;-88
2023/09/01 11:48:39;;;;;;;6.50;1.45;;;23.00;47.70;;;;;;4737710;30;20048;-87
2023/09/01 11:51:08;;;;;;;5.45;1.40;;;22.90;49.00;;;;;;4741300;30;20052;-88
2023/09/01 11:53:36;;;;;;;6.15;2.17;;;22.90;50.00;;;;;;4727125;30;20106;-88
2023/09/01 11:56:22;;;;;;;5.57;1.53;;;23.00;49.20;;;;;;4739958;30;20102;-88
2023/09/01 11:58:55;;;;;;;5.82;1.73;;;22.80;48.40;;;;;;4746044;30;20083;-88
2023/09/01 12:01:24;;;;;;;6.15;2.38;;;22.80;48.40;;;;;;4745529;30;20048;-88
2023/09/01 12:03:54;;;;;;;6.10;2.80;;;22.80;48.60;;;;;;4729767;30;20136;-88
2023/09/01 12:06:27;;;;;;;5.35;1.63;;;22.70;48.90;;;;;;4737140;30;20048;-88
2023/09/01 12:09:10;;;;;;;5.50;1.37;;;22.80;49.00;;;;;;4733465;30;20105;-88
2023/09/01 12:11:55;;;;;;;4.72;1.25;;;22.90;50.40;;;;;;4739697;30;20056;-88
2023/09/01 12:14:31;;;;;;;6.53;1.70;;;23.00;48.40;;;;;;4746874;30;20046;-89
2023/09/01 12:16:59;;;;;;;5.38;1.45;;;23.00;49.70;;;;;;4746277;30;20121;-89
2023/09/01 12:19:27;;;;;;;8.25;1.65;;;23.00;50.30;;;;;;4739015;30;20131;-89
2023/09/01 12:21:56;;;;;;;6.10;1.10;;;22.90;49.60;;;;;;4744543;30;20052;-88
2023/09/01 12:24:23;;;;;;;6.35;1.30;;;22.80;49.40;;;;;;4730890;30;20349;-88
2023/09/01 12:26:50;;;;;;;5.15;1.45;;;22.90;48.90;;;;;;4742673;30;20499;-88
2023/09/01 12:29:18;;;;;;;5.57;1.25;;;22.80;50.30;;;;;;4729626;30;20045;-88
2023/09/01 12:31:45;;;;;;;5.68;1.35;;;22.80;49.60;;;;;;4730561;30;20056;-89
2023/09/01 12:34:13;;;;;;;5.10;1.37;;;22.90;49.80;;;;;;4746511;30;20048;-88
2023/09/01 12:36:40;;;;;;;5.30;1.38;;;23.00;49.20;;;;;;4743511;30;20079;-90
2023/09/01 12:39:07;;;;;;;4.22;1.00;;;23.00;48.60;;;;;;4739020;30;20150;-89
2023/09/01 12:41:34;;;;;;;4.70;1.75;;;23.00;48.60;;;;;;4728023;30;20056;-88
2023/09/01 12:44:02;;;;;;;6.32;1.73;;;22.90;49.00;;;;;;4744546;30;20052;-88
2023/09/01 12:46:29;;;;;;;5.20;1.50;;;22.90;51.30;;;;;;4742373;30;20051;-88
2023/09/01 12:48:56;;;;;;;7.03;1.40;;;22.80;51.90;;;;;;4732962;30;20052;-88
2023/09/01 12:51:23;;;;;;;8.60;1.80;;;22.80;51.20;;;;;;4730430;30;20118;-92
2023/09/01 12:53:51;;;;;;;11.50;3.05;;;22.90;48.90;;;;;;4743936;30;20052;-88
2023/09/01 12:56:18;;;;;;;6.57;1.60;;;22.90;51.10;;;;;;4731344;30;20048;-88
2023/09/01 12:58:45;;;;;;;11.90;2.10;;;22.90;52.60;;;;;;4749009;30;20497;-88